createdAt,value
2022-12-16T00:01:35.833Z,33.20
2022-12-16T00:04:03.167Z,36.47
2022-12-16T00:06:34.227Z,39.13
2022-12-16T00:09:01.505Z,39.87
2022-12-16T00:11:32.211Z,35.60
2022-12-16T00:13:59.615Z,37.57
2022-12-16T00:16:26.864Z,34.77
2022-12-16T00:18:54.467Z,36.40
2022-12-16T00:21:23.253Z,36.97
2022-12-16T00:23:50.392Z,32.23
2022-12-16T00:26:17.573Z,44.10
2022-12-16T00:28:44.707Z,40.13
2022-12-16T00:31:12.459Z,38.60
2022-12-16T00:33:39.931Z,37.93
2022-12-16T00:36:07.323Z,33.80
2022-12-16T00:38:35.542Z,34.83
2022-12-16T00:41:03.341Z,38.37
2022-12-16T00:43:31.257Z,34.70
2022-12-16T00:45:58.852Z,36.60
2022-12-16T00:48:28.377Z,35.17
2022-12-16T00:50:56.301Z,29.63
2022-12-16T00:53:24.513Z,35.43
2022-12-16T00:55:52.447Z,31.20
2022-12-16T00:58:21.148Z,34.93
2022-12-16T01:00:48.669Z,32.40
2022-12-16T01:03:21.289Z,37.43
2022-12-16T01:05:49.289Z,35.33
2022-12-16T01:08:16.476Z,36.63
2022-12-16T01:10:43.884Z,30.53
2022-12-16T01:13:11.097Z,28.73
2022-12-16T01:15:38.825Z,35.07
2022-12-16T01:18:06.055Z,28.33
2022-12-16T01:20:34.877Z,35.20
2022-12-16T01:23:02.070Z,32.03
2022-12-16T01:25:29.656Z,28.40
2022-12-16T01:27:56.776Z,32.47
2022-12-16T01:30:24.733Z,32.97
2022-12-16T01:32:53.823Z,34.43
2022-12-16T01:35:51.517Z,33.40
2022-12-16T01:38:10.915Z,31.37
2022-12-16T01:40:38.152Z,28.10
2022-12-16T01:43:11.178Z,33.53
2022-12-16T01:45:38.730Z,35.57
2022-12-16T01:48:24.471Z,29.90
2022-12-16T01:50:53.488Z,30.03
2022-12-16T01:53:20.716Z,28.97
2022-12-16T01:55:49.813Z,29.17
2022-12-16T01:58:23.965Z,33.67
2022-12-16T02:00:51.520Z,30.87
2022-12-16T02:03:21.448Z,32.10
2022-12-16T02:05:49.356Z,28.83
2022-12-16T02:08:17.955Z,33.50
2022-12-16T02:10:45.422Z,34.33
2022-12-16T02:13:18.634Z,33.57
2022-12-16T02:15:48.420Z,33.00
2022-12-16T02:18:24.004Z,35.57
2022-12-16T02:21:06.223Z,35.90
2022-12-16T02:23:39.454Z,33.70
2022-12-16T02:26:25.348Z,30.17
2022-12-16T02:29:04.772Z,33.50
2022-12-16T02:31:38.306Z,31.10
2022-12-16T02:34:22.033Z,35.83
2022-12-16T02:37:01.524Z,31.20
2022-12-16T02:39:33.630Z,39.17
2022-12-16T02:42:31.253Z,31.20
2022-12-16T02:45:08.292Z,28.83
2022-12-16T02:47:39.652Z,32.07
2022-12-16T02:50:29.891Z,33.17
2022-12-16T02:53:09.977Z,32.27
2022-12-16T02:55:55.918Z,32.93
2022-12-16T02:58:33.607Z,30.17
2022-12-16T03:01:14.804Z,34.77
2022-12-16T03:03:57.776Z,34.27
2022-12-16T03:06:27.668Z,34.03
2022-12-16T03:09:06.060Z,29.57
2022-12-16T03:11:37.436Z,38.20
2022-12-16T03:14:12.498Z,31.97
2022-12-16T03:16:42.556Z,31.50
2022-12-16T03:19:12.552Z,34.77
2022-12-16T03:21:47.268Z,32.83
2022-12-16T03:24:17.659Z,28.90
2022-12-16T03:26:54.877Z,30.10
2022-12-16T03:29:32.834Z,29.30
2022-12-16T03:32:05.440Z,33.43
2022-12-16T03:34:38.641Z,31.93
2022-12-16T03:37:14.919Z,25.87
2022-12-16T03:40:01.132Z,30.57
2022-12-16T03:42:38.468Z,30.50
2022-12-16T03:45:17.000Z,33.43
2022-12-16T03:47:49.672Z,36.10
2022-12-16T03:50:19.472Z,30.00
2022-12-16T03:52:50.931Z,33.43
2022-12-16T03:55:22.617Z,30.23
2022-12-16T03:57:56.665Z,33.53
2022-12-16T04:00:27.945Z,31.27
2022-12-16T04:02:59.812Z,35.07
2022-12-16T04:05:28.780Z,29.17
2022-12-16T04:08:01.780Z,32.17
2022-12-16T04:10:49.082Z,27.03
2022-12-16T04:13:37.944Z,28.73
2022-12-16T04:16:26.326Z,33.73
2022-12-16T04:19:14.164Z,30.90
2022-12-16T04:22:02.256Z,30.57
2022-12-16T04:24:32.099Z,34.80
2022-12-16T04:27:20.710Z,27.73
2022-12-16T04:30:08.788Z,29.10
2022-12-16T04:33:01.398Z,35.57
2022-12-16T04:36:03.167Z,27.10
2022-12-16T04:38:50.733Z,31.80
2022-12-16T04:41:39.946Z,33.50
2022-12-16T04:44:35.889Z,29.80
2022-12-16T04:47:22.218Z,31.67
2022-12-16T04:50:08.213Z,31.40
2022-12-16T04:52:54.205Z,34.17
2022-12-16T04:55:40.010Z,30.53
2022-12-16T04:58:26.045Z,31.07
2022-12-16T05:01:12.098Z,25.47
2022-12-16T05:03:57.900Z,38.90
2022-12-16T05:06:43.763Z,29.70
2022-12-16T05:09:29.585Z,28.97
2022-12-16T05:12:15.689Z,29.67
2022-12-16T05:15:01.298Z,34.23
2022-12-16T05:17:51.721Z,29.53
2022-12-16T05:20:37.626Z,30.27
2022-12-16T05:23:23.801Z,30.00
2022-12-16T05:26:09.455Z,31.90
2022-12-16T05:28:55.089Z,28.67
2022-12-16T05:31:41.047Z,28.70
2022-12-16T05:34:27.513Z,33.50
2022-12-16T05:37:13.625Z,30.60
2022-12-16T05:39:59.415Z,33.33
2022-12-16T05:42:45.331Z,30.40
2022-12-16T05:45:31.270Z,27.00
2022-12-16T05:48:16.957Z,26.07
2022-12-16T05:51:02.967Z,30.87
2022-12-16T05:53:56.628Z,29.87
2022-12-16T05:56:56.195Z,32.47
2022-12-16T05:59:42.034Z,27.40
2022-12-16T06:02:27.934Z,35.20
2022-12-16T06:05:13.768Z,29.03
2022-12-16T06:07:59.580Z,28.30
2022-12-16T06:10:45.472Z,27.27
2022-12-16T06:13:31.758Z,28.30
2022-12-16T06:16:18.031Z,28.63
2022-12-16T06:19:03.832Z,31.37
2022-12-16T06:21:57.309Z,35.53
2022-12-16T06:24:43.149Z,31.70
2022-12-16T06:27:29.248Z,29.10
2022-12-16T06:30:15.370Z,34.37
2022-12-16T06:33:01.885Z,34.23
2022-12-16T06:35:47.798Z,28.10
2022-12-16T06:38:34.149Z,33.50
2022-12-16T06:41:19.837Z,33.27
2022-12-16T06:44:05.588Z,33.10
2022-12-16T06:46:51.433Z,34.87
2022-12-16T06:49:37.108Z,27.67
2022-12-16T06:52:23.210Z,29.53
2022-12-16T06:55:08.991Z,37.63
2022-12-16T06:57:55.026Z,30.07
2022-12-16T07:00:41.024Z,30.23
2022-12-16T07:03:27.540Z,27.33
2022-12-16T07:06:15.627Z,33.70
2022-12-16T07:09:01.317Z,30.53
2022-12-16T07:11:47.311Z,36.70
2022-12-16T07:14:33.197Z,30.93
2022-12-16T07:17:19.239Z,33.43
2022-12-16T07:20:05.116Z,34.00
2022-12-16T07:23:01.083Z,33.73
2022-12-16T07:25:50.304Z,34.83
2022-12-16T07:28:35.882Z,29.13
2022-12-16T07:31:21.904Z,29.47
2022-12-16T07:34:07.772Z,33.97
2022-12-16T07:36:53.848Z,32.83
2022-12-16T07:39:39.944Z,33.03
2022-12-16T07:42:26.049Z,33.03
2022-12-16T07:45:11.915Z,34.13
2022-12-16T07:47:57.551Z,28.47
2022-12-16T07:50:43.705Z,31.77
2022-12-16T07:53:31.501Z,35.03
2022-12-16T07:56:25.219Z,30.43
2022-12-16T07:59:11.426Z,28.43
2022-12-16T08:01:57.582Z,32.23
2022-12-16T08:04:43.848Z,29.27
2022-12-16T08:07:29.949Z,31.50
2022-12-16T08:10:15.722Z,31.40
2022-12-16T08:13:01.716Z,38.87
2022-12-16T08:15:47.785Z,35.00
2022-12-16T08:18:33.884Z,33.90
2022-12-16T08:21:19.686Z,30.87
2022-12-16T08:24:06.170Z,29.50
2022-12-16T08:26:51.676Z,31.00
2022-12-16T08:29:46.047Z,32.30
2022-12-16T08:32:35.621Z,30.67
2022-12-16T08:35:21.411Z,27.00
2022-12-16T08:38:13.574Z,35.73
2022-12-16T08:41:00.471Z,32.03
2022-12-16T08:43:46.360Z,32.57
2022-12-16T08:46:32.323Z,31.07
2022-12-16T08:49:18.461Z,36.07
2022-12-16T08:52:04.249Z,34.53
2022-12-16T08:54:50.239Z,28.23
2022-12-16T08:57:35.912Z,34.57
2022-12-16T09:00:21.918Z,30.13
2022-12-16T09:03:08.320Z,36.00
2022-12-16T09:05:54.506Z,33.93
2022-12-16T09:08:40.666Z,32.83
2022-12-16T09:11:26.498Z,34.20
2022-12-16T09:14:12.485Z,34.43
2022-12-16T09:16:58.376Z,31.53
2022-12-16T09:19:44.577Z,34.17
2022-12-16T09:22:30.196Z,30.87
2022-12-16T09:25:16.459Z,30.23
2022-12-16T09:28:02.053Z,37.50
2022-12-16T09:30:48.086Z,35.80
2022-12-16T09:33:34.490Z,28.97
2022-12-16T09:36:20.329Z,35.37
2022-12-16T09:39:06.465Z,34.47
2022-12-16T09:41:52.537Z,38.03
2022-12-16T09:44:41.485Z,39.10
2022-12-16T09:47:27.851Z,32.23
2022-12-16T09:50:14.506Z,39.43
2022-12-16T09:53:03.370Z,35.57
2022-12-16T09:55:51.399Z,31.60
2022-12-16T09:58:39.132Z,36.73
2022-12-16T10:01:26.009Z,40.53
2022-12-16T10:04:11.869Z,34.33
2022-12-16T10:07:07.989Z,38.60
2022-12-16T10:09:56.663Z,40.10
2022-12-16T10:12:49.520Z,37.80
2022-12-16T10:15:58.253Z,33.43
2022-12-16T10:18:55.753Z,36.60
2022-12-16T10:21:46.806Z,36.27
2022-12-16T10:24:44.552Z,37.73
2022-12-16T10:27:34.962Z,34.87
2022-12-16T10:30:22.611Z,40.77
2022-12-16T10:33:09.752Z,41.33
2022-12-16T10:35:55.700Z,41.30
2022-12-16T10:38:41.788Z,38.90
2022-12-16T10:41:28.506Z,33.43
2022-12-16T10:44:14.815Z,37.67
2022-12-16T10:47:00.872Z,41.20
2022-12-16T10:49:52.327Z,44.27
2022-12-16T10:52:40.363Z,38.30
2022-12-16T10:55:40.281Z,42.27
2022-12-16T10:58:26.080Z,40.70
2022-12-16T11:01:12.365Z,40.73
2022-12-16T11:03:58.987Z,36.13
2022-12-16T11:06:46.304Z,39.50
2022-12-16T11:09:39.868Z,40.37
2022-12-16T11:12:44.109Z,43.13
2022-12-16T11:15:42.542Z,42.57
2022-12-16T11:18:34.436Z,37.37
2022-12-16T11:21:39.228Z,43.37
2022-12-16T11:24:33.255Z,37.10
2022-12-16T11:27:26.693Z,40.67
2022-12-16T11:30:24.478Z,40.07
2022-12-16T11:33:15.030Z,40.50
2022-12-16T11:36:02.905Z,43.23
2022-12-16T11:38:56.178Z,48.33
2022-12-16T11:41:43.885Z,47.43
2022-12-16T11:44:33.402Z,41.67
2022-12-16T11:47:19.229Z,47.83
2022-12-16T11:50:05.062Z,39.77
2022-12-16T11:52:51.429Z,43.67
2022-12-16T11:56:04.825Z,41.23
2022-12-16T11:58:55.477Z,45.97
2022-12-16T12:01:45.778Z,46.00
2022-12-16T12:04:32.286Z,43.87
2022-12-16T12:07:27.656Z,42.87
2022-12-16T12:10:17.515Z,39.83
2022-12-16T12:13:15.650Z,35.83
2022-12-16T12:16:09.215Z,41.80
2022-12-16T12:19:10.393Z,42.30
2022-12-16T12:22:08.469Z,44.73
2022-12-16T12:25:00.556Z,38.63
2022-12-16T12:28:06.994Z,45.20
2022-12-16T12:30:57.324Z,40.67
2022-12-16T12:34:21.914Z,53.67
2022-12-16T12:37:11.204Z,42.07
2022-12-16T12:40:02.850Z,42.20
2022-12-16T12:42:49.703Z,44.23
2022-12-16T12:45:47.493Z,42.70
2022-12-16T12:48:33.272Z,39.53
2022-12-16T12:51:45.031Z,44.33
2022-12-16T12:54:39.660Z,43.37
2022-12-16T12:57:25.821Z,41.93
2022-12-16T13:00:17.850Z,34.50
2022-12-16T13:03:19.597Z,43.13
2022-12-16T13:06:05.985Z,40.43
2022-12-16T13:08:51.958Z,39.03
2022-12-16T13:11:37.662Z,42.23
2022-12-16T13:14:43.572Z,39.33
2022-12-16T13:17:29.551Z,36.77
2022-12-16T13:20:16.189Z,45.10
2022-12-16T13:23:03.504Z,35.00
2022-12-16T13:25:52.451Z,41.07
2022-12-16T13:28:46.215Z,40.17
2022-12-16T13:31:32.395Z,37.47
2022-12-16T13:34:32.439Z,37.43
2022-12-16T13:37:25.770Z,34.03
2022-12-16T13:40:20.731Z,38.97
2022-12-16T13:43:06.398Z,38.60
2022-12-16T13:45:54.204Z,34.43
2022-12-16T13:48:47.613Z,35.67
2022-12-16T13:51:52.137Z,34.70
2022-12-16T13:54:37.990Z,33.60
2022-12-16T13:57:24.419Z,35.73
2022-12-16T14:00:10.790Z,30.00
2022-12-16T14:02:58.727Z,36.20
2022-12-16T14:05:48.451Z,40.40
2022-12-16T14:08:39.230Z,37.20
2022-12-16T14:11:27.126Z,35.80
2022-12-16T14:14:18.326Z,34.57
2022-12-16T14:17:11.729Z,36.50
2022-12-16T14:20:15.758Z,37.67
2022-12-16T14:23:47.342Z,35.97
2022-12-16T14:26:24.563Z,35.17
2022-12-16T14:29:11.078Z,35.40
2022-12-16T14:31:58.556Z,45.93
2022-12-16T14:34:44.302Z,41.07
2022-12-16T14:37:33.166Z,36.93
2022-12-16T14:40:18.855Z,39.37
2022-12-16T14:43:08.338Z,42.60
2022-12-16T14:45:56.154Z,35.60
2022-12-16T14:48:47.645Z,41.73
2022-12-16T14:51:46.110Z,42.50
2022-12-16T14:54:42.818Z,36.67
2022-12-16T14:57:36.565Z,38.67
2022-12-16T15:00:27.985Z,34.37
2022-12-16T15:03:15.337Z,51.57
2022-12-16T15:06:01.735Z,52.83
2022-12-16T15:08:49.036Z,48.37
2022-12-16T15:11:37.705Z,48.00
2022-12-16T15:14:23.788Z,35.53
2022-12-16T15:17:10.200Z,40.37
2022-12-16T15:20:05.031Z,37.30
2022-12-16T15:22:51.263Z,37.57
2022-12-16T15:25:41.530Z,45.00
2022-12-16T15:28:43.635Z,37.40
2022-12-16T15:31:32.999Z,105.97
2022-12-16T15:34:51.101Z,95.17
2022-12-16T15:37:38.776Z,76.57
2022-12-16T15:40:25.802Z,49.13
2022-12-16T15:43:16.278Z,61.10
2022-12-16T15:46:07.258Z,50.73
2022-12-16T15:48:53.918Z,49.20
2022-12-16T15:51:49.930Z,41.67
2022-12-16T15:54:40.544Z,47.90
2022-12-16T15:57:45.168Z,46.87
2022-12-16T16:00:38.329Z,47.97
2022-12-16T16:03:24.035Z,49.63
2022-12-16T16:06:09.845Z,55.33
2022-12-16T16:08:55.741Z,54.30
2022-12-16T16:11:41.599Z,50.63
2022-12-16T16:14:27.497Z,48.57
2022-12-16T16:17:21.094Z,44.40
2022-12-16T16:20:07.185Z,51.50
2022-12-16T16:22:53.088Z,59.67
2022-12-16T16:25:38.942Z,62.13
2022-12-16T16:28:24.814Z,61.03
2022-12-16T16:31:10.695Z,75.03
2022-12-16T16:33:56.743Z,67.33
2022-12-16T16:36:42.397Z,61.47
2022-12-16T16:39:28.388Z,65.67
2022-12-16T16:42:14.463Z,60.77
2022-12-16T16:45:00.167Z,67.33
2022-12-16T16:47:46.238Z,67.20
2022-12-16T16:50:34.380Z,64.23
2022-12-16T16:53:20.207Z,57.90
2022-12-16T16:56:06.097Z,60.37
2022-12-16T16:58:53.462Z,66.20
2022-12-16T17:01:39.199Z,53.90
2022-12-16T17:04:25.448Z,56.90
2022-12-16T17:07:11.530Z,52.87
2022-12-16T17:09:57.240Z,54.07
2022-12-16T17:12:44.699Z,48.93
2022-12-16T17:15:43.839Z,44.50
2022-12-16T17:18:29.734Z,47.40
2022-12-16T17:21:15.657Z,41.53
2022-12-16T17:24:01.184Z,46.90
2022-12-16T17:26:47.270Z,47.07
2022-12-16T17:29:43.245Z,48.47
2022-12-16T17:32:29.137Z,47.80
2022-12-16T17:35:14.973Z,49.70
2022-12-16T17:38:01.030Z,44.60
2022-12-16T17:40:46.629Z,43.40
2022-12-16T17:43:33.175Z,52.10
2022-12-16T17:46:20.121Z,46.97
2022-12-16T17:49:10.050Z,51.37
2022-12-16T17:51:55.757Z,40.93
2022-12-16T17:54:41.743Z,48.67
2022-12-16T17:57:27.366Z,45.33
2022-12-16T18:00:13.175Z,45.40
2022-12-16T18:02:59.298Z,51.63
2022-12-16T18:05:45.251Z,51.63
2022-12-16T18:08:35.265Z,50.70
2022-12-16T18:11:38.742Z,51.93
2022-12-16T18:14:25.206Z,46.33
2022-12-16T18:17:10.853Z,48.47
2022-12-16T18:19:56.710Z,55.83
2022-12-16T18:22:42.835Z,46.53
2022-12-16T18:25:28.719Z,48.17
2022-12-16T18:28:14.689Z,54.20
2022-12-16T18:31:00.777Z,53.70
2022-12-16T18:33:46.427Z,47.77
2022-12-16T18:36:32.044Z,49.03
2022-12-16T18:39:17.877Z,46.80
2022-12-16T18:42:04.593Z,51.53
2022-12-16T18:44:52.882Z,46.13
2022-12-16T18:47:42.172Z,49.63
2022-12-16T18:50:32.755Z,59.87
2022-12-16T18:53:21.495Z,49.23
2022-12-16T18:56:07.462Z,44.23
2022-12-16T18:58:56.145Z,35.63
2022-12-16T19:01:42.813Z,44.50
2022-12-16T19:04:28.581Z,43.33
2022-12-16T19:07:14.435Z,41.20
2022-12-16T19:10:20.153Z,36.20
2022-12-16T19:13:05.715Z,40.97
2022-12-16T19:15:51.420Z,44.70
2022-12-16T19:18:37.644Z,42.77
2022-12-16T19:21:23.672Z,51.47
2022-12-16T19:24:09.373Z,52.63
2022-12-16T19:26:56.683Z,58.53
2022-12-16T19:29:43.034Z,56.60
2022-12-16T19:32:28.973Z,76.13
2022-12-16T19:35:14.846Z,59.27
2022-12-16T19:38:00.636Z,62.20
2022-12-16T19:40:46.657Z,62.37
2022-12-16T19:43:32.409Z,53.10
2022-12-16T19:46:35.209Z,49.43
2022-12-16T19:49:20.736Z,44.50
2022-12-16T19:52:06.648Z,45.97
2022-12-16T19:54:54.808Z,48.30
2022-12-16T19:57:41.988Z,49.73
2022-12-16T20:00:29.365Z,46.73
2022-12-16T20:03:15.559Z,45.27
2022-12-16T20:06:01.263Z,46.73
2022-12-16T20:08:46.967Z,47.80
2022-12-16T20:11:33.302Z,53.37
2022-12-16T20:14:20.414Z,43.13
2022-12-16T20:17:06.178Z,49.70
2022-12-16T20:19:52.001Z,46.00
2022-12-16T20:22:37.847Z,47.03
2022-12-16T20:25:24.202Z,50.60
2022-12-16T20:28:10.136Z,51.13
2022-12-16T20:30:56.159Z,47.43
2022-12-16T20:33:42.831Z,53.83
2022-12-16T20:36:28.912Z,58.93
2022-12-16T20:39:14.981Z,59.53
2022-12-16T20:42:01.273Z,57.67
2022-12-16T20:44:47.234Z,53.47
2022-12-16T20:47:32.764Z,41.73
2022-12-16T20:50:18.570Z,40.80
2022-12-16T20:53:04.602Z,42.57
2022-12-16T20:55:50.428Z,43.80
2022-12-16T20:58:38.849Z,47.13
2022-12-16T21:01:25.345Z,45.17
2022-12-16T21:04:11.315Z,45.33
2022-12-16T21:06:57.320Z,49.40
2022-12-16T21:09:42.997Z,44.50
2022-12-16T21:12:29.063Z,47.63
2022-12-16T21:15:34.652Z,47.83
2022-12-16T21:18:20.815Z,54.60
2022-12-16T21:21:13.309Z,45.30
2022-12-16T21:23:59.268Z,48.03
2022-12-16T21:26:45.642Z,51.53
2022-12-16T21:29:31.522Z,57.23
2022-12-16T21:32:17.675Z,63.10
2022-12-16T21:35:03.495Z,54.47
2022-12-16T21:37:49.342Z,56.80
2022-12-16T21:40:35.276Z,55.13
2022-12-16T21:43:21.419Z,51.80
2022-12-16T21:46:13.706Z,60.17
2022-12-16T21:48:59.611Z,66.00
2022-12-16T21:51:45.478Z,74.20
2022-12-16T21:54:31.354Z,77.70
2022-12-16T21:57:17.291Z,84.13
2022-12-16T22:00:02.971Z,76.53
2022-12-16T22:02:48.964Z,69.97
2022-12-16T22:05:34.846Z,68.53
2022-12-16T22:08:24.864Z,74.57
2022-12-16T22:11:10.455Z,80.97
2022-12-16T22:13:56.285Z,74.70
2022-12-16T22:16:42.172Z,75.30
2022-12-16T22:19:28.076Z,72.97
2022-12-16T22:22:13.604Z,58.87
2022-12-16T22:24:59.641Z,67.53
2022-12-16T22:27:45.951Z,63.37
2022-12-16T22:30:31.743Z,64.63
2022-12-16T22:33:17.427Z,50.87
2022-12-16T22:36:03.424Z,50.70
2022-12-16T22:38:56.412Z,49.10
2022-12-16T22:41:42.159Z,56.67
2022-12-16T22:44:28.562Z,57.03
2022-12-16T22:47:14.675Z,59.53
2022-12-16T22:50:00.269Z,50.93
2022-12-16T22:52:46.350Z,47.17
2022-12-16T22:55:32.613Z,49.13
2022-12-16T22:58:18.179Z,49.93
2022-12-16T23:01:04.099Z,46.93
2022-12-16T23:03:49.916Z,46.63
2022-12-16T23:06:35.781Z,50.13
2022-12-16T23:09:21.704Z,51.93
2022-12-16T23:12:07.597Z,54.17
2022-12-16T23:14:53.372Z,47.50
2022-12-16T23:17:39.013Z,52.27
2022-12-16T23:20:24.977Z,51.13
2022-12-16T23:23:13.114Z,44.33
2022-12-16T23:25:59.039Z,47.17
2022-12-16T23:28:44.842Z,50.10
2022-12-16T23:31:30.788Z,53.30
2022-12-16T23:34:16.822Z,49.60
2022-12-16T23:37:02.742Z,59.27
2022-12-16T23:39:48.472Z,55.20
2022-12-16T23:42:34.431Z,55.77
2022-12-16T23:45:20.265Z,52.90
2022-12-16T23:48:06.160Z,58.23
2022-12-16T23:50:52.114Z,58.63
2022-12-16T23:53:38.625Z,56.63
2022-12-16T23:56:24.634Z,59.43
2022-12-16T23:59:10.612Z,56.97
